createdAt,value
2022-11-16T00:01:00.471Z,4.95
2022-11-16T00:03:04.219Z,4.93
2022-11-16T00:05:07.887Z,5.07
2022-11-16T00:07:11.439Z,4.72
2022-11-16T00:09:23.230Z,5.30
2022-11-16T00:11:26.273Z,5.45
2022-11-16T00:13:29.140Z,5.10
2022-11-16T00:15:32.054Z,4.90
2022-11-16T00:17:36.628Z,5.30
2022-11-16T00:19:39.509Z,4.95
2022-11-16T00:21:46.175Z,5.22
2022-11-16T00:23:49.173Z,5.38
2022-11-16T00:25:53.301Z,6.03
2022-11-16T00:27:56.184Z,5.20
2022-11-16T00:29:59.151Z,5.43
2022-11-16T00:32:02.144Z,5.40
2022-11-16T00:34:06.766Z,5.68
2022-11-16T00:36:12.087Z,6.85
2022-11-16T00:38:15.013Z,6.13
2022-11-16T00:40:19.497Z,6.30
2022-11-16T00:42:22.393Z,6.88
2022-11-16T00:44:26.389Z,8.07
2022-11-16T00:46:29.366Z,7.80
2022-11-16T00:48:32.799Z,8.30
2022-11-16T00:50:37.342Z,6.70
2022-11-16T00:52:40.447Z,7.03
2022-11-16T00:54:43.810Z,7.45
2022-11-16T00:56:46.833Z,7.65
2022-11-16T00:58:49.840Z,7.78
2022-11-16T01:00:53.174Z,7.53
2022-11-16T01:02:56.262Z,7.28
2022-11-16T01:05:00.578Z,7.35
2022-11-16T01:07:06.650Z,7.20
2022-11-16T01:09:09.507Z,6.97
2022-11-16T01:11:32.481Z,6.90
2022-11-16T01:13:35.320Z,6.47
2022-11-16T01:15:38.237Z,7.63
2022-11-16T01:17:42.799Z,7.07
2022-11-16T01:19:45.726Z,6.88
2022-11-16T01:21:48.580Z,6.70
2022-11-16T01:23:53.913Z,6.45
2022-11-16T01:25:57.665Z,6.47
2022-11-16T01:28:01.698Z,6.40
2022-11-16T01:30:16.913Z,6.78
2022-11-16T01:32:28.742Z,6.65
2022-11-16T01:34:31.667Z,8.80
2022-11-16T01:36:41.107Z,7.45
2022-11-16T01:38:45.589Z,6.38
2022-11-16T01:40:50.545Z,6.65
2022-11-16T01:42:53.552Z,5.20
2022-11-16T01:45:16.842Z,5.35
2022-11-16T01:47:19.957Z,6.68
2022-11-16T01:49:24.925Z,5.38
2022-11-16T01:51:32.228Z,4.95
2022-11-16T01:53:35.781Z,4.82
2022-11-16T01:55:38.595Z,4.97
2022-11-16T01:57:51.352Z,4.85
2022-11-16T01:59:58.799Z,4.70
2022-11-16T02:02:05.819Z,4.60
2022-11-16T02:04:11.091Z,4.80
2022-11-16T02:06:42.637Z,4.70
2022-11-16T02:09:17.947Z,4.43
2022-11-16T02:11:57.479Z,4.22
2022-11-16T02:14:16.213Z,4.45
2022-11-16T02:16:30.552Z,4.20
2022-11-16T02:18:39.744Z,3.85
2022-11-16T02:21:06.454Z,3.80
2022-11-16T02:23:36.924Z,4.22
2022-11-16T02:25:51.206Z,3.45
2022-11-16T02:28:11.117Z,3.80
2022-11-16T02:30:15.523Z,3.97
2022-11-16T02:32:26.401Z,3.92
2022-11-16T02:34:34.265Z,3.83
2022-11-16T02:36:39.772Z,3.70
2022-11-16T02:38:49.462Z,3.65
2022-11-16T02:40:57.843Z,3.80
2022-11-16T02:43:08.285Z,3.78
2022-11-16T02:45:15.182Z,3.97
2022-11-16T02:47:24.189Z,4.03
2022-11-16T02:49:29.875Z,4.13
2022-11-16T02:51:35.850Z,4.40
2022-11-16T02:53:43.864Z,3.95
2022-11-16T02:55:47.912Z,3.88
2022-11-16T02:57:54.371Z,3.67
2022-11-16T02:59:58.974Z,4.28
2022-11-16T03:02:15.087Z,4.25
2022-11-16T03:04:27.309Z,3.60
2022-11-16T03:06:34.072Z,4.03
2022-11-16T03:08:41.310Z,4.18
2022-11-16T03:11:08.726Z,3.65
2022-11-16T03:13:13.582Z,3.92
2022-11-16T03:15:16.383Z,3.83
2022-11-16T03:17:23.636Z,3.78
2022-11-16T03:19:34.418Z,3.90
2022-11-16T03:21:40.798Z,4.10
2022-11-16T03:23:45.904Z,3.85
2022-11-16T03:25:52.750Z,3.75
2022-11-16T03:28:06.090Z,4.00
2022-11-16T03:30:12.080Z,3.90
2022-11-16T03:32:23.604Z,4.00
2022-11-16T03:34:34.506Z,4.10
2022-11-16T03:36:41.745Z,4.50
2022-11-16T03:38:50.567Z,4.00
2022-11-16T03:40:57.080Z,4.00
2022-11-16T03:43:02.475Z,4.30
2022-11-16T03:45:06.437Z,4.32
2022-11-16T03:47:09.111Z,3.80
2022-11-16T03:49:11.877Z,4.70
2022-11-16T03:51:15.981Z,4.03
2022-11-16T03:53:18.996Z,4.35
2022-11-16T03:55:22.740Z,4.00
2022-11-16T03:57:25.470Z,3.63
2022-11-16T03:59:31.743Z,3.70
2022-11-16T04:01:39.213Z,3.30
2022-11-16T04:03:46.037Z,3.03
2022-11-16T04:06:07.270Z,2.90
2022-11-16T04:08:33.312Z,2.20
2022-11-16T04:10:53.885Z,2.60
2022-11-16T04:13:15.781Z,2.35
2022-11-16T04:15:36.750Z,2.67
2022-11-16T04:17:57.210Z,2.70
2022-11-16T04:20:17.469Z,3.10
2022-11-16T04:22:41.870Z,2.67
2022-11-16T04:24:50.338Z,3.00
2022-11-16T04:27:14.485Z,2.90
2022-11-16T04:29:17.273Z,2.70
2022-11-16T04:31:38.319Z,2.88
2022-11-16T04:34:03.041Z,3.13
2022-11-16T04:36:23.979Z,2.90
2022-11-16T04:38:26.892Z,3.30
2022-11-16T04:40:31.095Z,3.10
2022-11-16T04:42:33.607Z,3.33
2022-11-16T04:44:54.692Z,3.05
2022-11-16T04:47:09.104Z,2.38
2022-11-16T04:49:14.205Z,2.38
2022-11-16T04:51:17.155Z,2.92
2022-11-16T04:53:22.373Z,2.80
2022-11-16T04:55:32.980Z,2.88
2022-11-16T04:57:35.636Z,2.63
2022-11-16T04:59:39.631Z,2.88
2022-11-16T05:01:59.882Z,2.60
2022-11-16T05:04:03.102Z,2.60
2022-11-16T05:06:06.178Z,2.40
2022-11-16T05:08:09.988Z,2.70
2022-11-16T05:10:14.204Z,2.60
2022-11-16T05:12:21.142Z,2.60
2022-11-16T05:14:26.948Z,2.25
2022-11-16T05:16:30.678Z,2.40
2022-11-16T05:18:33.796Z,2.13
2022-11-16T05:20:55.419Z,2.03
2022-11-16T05:22:59.671Z,2.10
2022-11-16T05:25:08.139Z,2.20
2022-11-16T05:27:13.582Z,2.45
2022-11-16T05:29:18.212Z,2.60
2022-11-16T05:31:21.010Z,2.40
2022-11-16T05:33:24.504Z,2.00
2022-11-16T05:35:27.650Z,2.10
2022-11-16T05:37:30.458Z,2.70
2022-11-16T05:39:34.118Z,2.40
2022-11-16T05:41:36.874Z,4.00
2022-11-16T05:43:39.927Z,6.22
2022-11-16T05:45:55.093Z,2.20
2022-11-16T05:47:57.915Z,1.65
2022-11-16T05:50:00.607Z,2.20
2022-11-16T05:52:08.061Z,1.80
2022-11-16T05:54:13.641Z,5.75
2022-11-16T05:56:17.071Z,4.30
2022-11-16T05:58:19.818Z,1.92
2022-11-16T06:00:24.531Z,2.00
2022-11-16T06:02:30.561Z,2.20
2022-11-16T06:04:33.990Z,1.50
2022-11-16T06:06:37.122Z,1.30
2022-11-16T06:08:39.860Z,1.60
2022-11-16T06:10:46.220Z,0.90
2022-11-16T06:12:49.005Z,1.20
2022-11-16T06:14:51.864Z,2.40
2022-11-16T06:16:54.598Z,3.85
2022-11-16T06:18:58.757Z,2.30
2022-11-16T06:21:01.533Z,2.80
2022-11-16T06:23:04.385Z,2.92
2022-11-16T06:25:08.210Z,3.00
2022-11-16T06:27:15.964Z,2.50
2022-11-16T06:29:20.837Z,2.50
2022-11-16T06:31:23.696Z,2.78
2022-11-16T06:33:32.209Z,2.88
2022-11-16T06:35:38.311Z,2.40
2022-11-16T06:37:41.065Z,1.77
2022-11-16T06:39:44.090Z,1.40
2022-11-16T06:41:47.005Z,1.40
2022-11-16T06:43:50.043Z,1.08
2022-11-16T06:45:57.687Z,0.98
2022-11-16T06:48:00.516Z,0.70
2022-11-16T06:50:03.500Z,0.50
2022-11-16T06:52:07.858Z,0.73
2022-11-16T06:54:10.789Z,0.80
2022-11-16T06:56:16.024Z,0.63
2022-11-16T06:58:24.217Z,0.80
2022-11-16T07:00:27.769Z,0.90
2022-11-16T07:02:31.105Z,1.30
2022-11-16T07:04:38.274Z,1.00
2022-11-16T07:06:41.516Z,1.45
2022-11-16T07:08:46.472Z,1.33
2022-11-16T07:10:52.842Z,1.90
2022-11-16T07:12:55.648Z,1.00
2022-11-16T07:14:59.783Z,0.57
2022-11-16T07:17:09.315Z,0.50
2022-11-16T07:19:12.377Z,0.70
2022-11-16T07:21:17.742Z,0.68
2022-11-16T07:23:21.047Z,0.30
2022-11-16T07:25:25.178Z,0.60
2022-11-16T07:27:29.052Z,0.73
2022-11-16T07:29:31.804Z,0.60
2022-11-16T07:31:56.069Z,0.40
2022-11-16T07:34:17.904Z,1.58
2022-11-16T07:36:29.153Z,0.90
2022-11-16T07:38:33.187Z,1.00
2022-11-16T07:40:37.490Z,0.65
2022-11-16T07:42:40.266Z,0.40
2022-11-16T07:44:51.239Z,0.30
2022-11-16T07:46:54.924Z,0.80
2022-11-16T07:48:58.894Z,1.38
2022-11-16T07:51:21.084Z,1.90
2022-11-16T07:53:37.793Z,0.70
2022-11-16T07:55:41.879Z,1.38
2022-11-16T07:57:50.365Z,2.10
2022-11-16T07:59:55.855Z,1.00
2022-11-16T08:01:59.279Z,0.90
2022-11-16T08:04:03.205Z,1.05
2022-11-16T08:06:07.853Z,0.82
2022-11-16T08:08:11.812Z,1.77
2022-11-16T08:10:15.778Z,2.00
2022-11-16T08:12:20.088Z,1.52
2022-11-16T08:14:23.182Z,1.10
2022-11-16T08:16:27.900Z,1.13
2022-11-16T08:18:40.687Z,1.00
2022-11-16T08:20:43.426Z,0.95
2022-11-16T08:22:46.400Z,1.30
2022-11-16T08:24:49.357Z,0.88
2022-11-16T08:26:54.225Z,1.65
2022-11-16T08:28:58.438Z,1.83
2022-11-16T08:31:09.741Z,1.45
2022-11-16T08:33:13.701Z,1.10
2022-11-16T08:35:16.508Z,1.70
2022-11-16T08:37:20.616Z,0.80
2022-11-16T08:39:24.316Z,0.90
2022-11-16T08:41:27.569Z,0.70
2022-11-16T08:43:31.054Z,0.90
2022-11-16T08:45:35.313Z,1.10
2022-11-16T08:47:38.093Z,1.70
2022-11-16T08:49:46.663Z,5.43
2022-11-16T08:51:52.821Z,9.27
2022-11-16T08:53:57.387Z,2.10
2022-11-16T08:56:04.664Z,2.03
2022-11-16T08:58:07.552Z,1.25
2022-11-16T09:00:11.900Z,1.15
2022-11-16T09:02:16.194Z,2.22
2022-11-16T09:04:19.546Z,1.50
2022-11-16T09:06:23.634Z,1.83
2022-11-16T09:08:26.406Z,1.50
2022-11-16T09:10:29.156Z,1.15
2022-11-16T09:12:31.899Z,1.13
2022-11-16T09:14:34.579Z,1.33
2022-11-16T09:16:37.402Z,1.08
2022-11-16T09:18:41.477Z,1.95
2022-11-16T09:20:44.834Z,2.08
2022-11-16T09:22:47.644Z,1.90
2022-11-16T09:24:50.469Z,3.72
2022-11-16T09:26:53.229Z,1.77
2022-11-16T09:28:58.354Z,1.25
2022-11-16T09:31:02.900Z,0.80
2022-11-16T09:33:05.657Z,0.80
2022-11-16T09:35:10.728Z,0.90
2022-11-16T09:37:13.446Z,1.00
2022-11-16T09:39:32.253Z,1.13
2022-11-16T09:41:52.528Z,0.80
2022-11-16T09:44:02.542Z,1.17
2022-11-16T09:46:16.080Z,0.80
2022-11-16T09:48:20.955Z,1.10
2022-11-16T09:50:42.267Z,1.00
2022-11-16T09:52:49.400Z,0.70
2022-11-16T09:54:54.318Z,0.43
2022-11-16T09:57:01.088Z,1.08
2022-11-16T09:59:06.973Z,0.77
2022-11-16T10:01:22.699Z,0.60
2022-11-16T10:03:26.919Z,0.80
2022-11-16T10:05:39.198Z,0.90
2022-11-16T10:07:46.101Z,5.50
2022-11-16T10:09:49.053Z,1.80
2022-11-16T10:12:16.434Z,1.00
2022-11-16T10:14:43.499Z,0.83
2022-11-16T10:16:53.751Z,0.80
2022-11-16T10:18:59.593Z,0.60
2022-11-16T10:21:15.181Z,0.83
2022-11-16T10:23:30.739Z,1.13
2022-11-16T10:25:43.106Z,1.43
2022-11-16T10:28:06.827Z,1.13
2022-11-16T10:30:14.035Z,3.83
2022-11-16T10:32:25.998Z,2.20
2022-11-16T10:34:32.593Z,1.43
2022-11-16T10:36:38.145Z,1.17
2022-11-16T10:38:42.522Z,0.97
2022-11-16T10:40:51.045Z,1.23
2022-11-16T10:43:02.128Z,0.77
2022-11-16T10:45:14.215Z,0.60
2022-11-16T10:47:23.559Z,0.50
2022-11-16T10:49:34.211Z,0.97
2022-11-16T10:51:38.333Z,1.10
2022-11-16T10:53:42.432Z,1.10
2022-11-16T10:55:45.134Z,0.50
2022-11-16T10:57:58.852Z,0.57
2022-11-16T11:00:02.640Z,0.90
2022-11-16T11:02:27.803Z,0.83
2022-11-16T11:04:32.716Z,0.60
2022-11-16T11:06:35.611Z,0.60
2022-11-16T11:08:39.718Z,0.60
2022-11-16T11:10:43.179Z,0.87
2022-11-16T11:13:02.185Z,0.70
2022-11-16T11:15:24.392Z,0.53
2022-11-16T11:17:29.869Z,0.57
2022-11-16T11:19:32.541Z,0.80
2022-11-16T11:21:35.750Z,0.70
2022-11-16T11:23:48.687Z,1.03
2022-11-16T11:25:54.233Z,0.90
2022-11-16T11:28:06.564Z,0.70
2022-11-16T11:30:20.972Z,0.50
2022-11-16T11:32:26.618Z,4.57
2022-11-16T11:34:31.370Z,1.10
2022-11-16T11:36:38.589Z,1.90
2022-11-16T11:39:00.052Z,4.63
2022-11-16T11:41:05.453Z,3.30
2022-11-16T11:43:22.920Z,1.87
2022-11-16T11:45:37.643Z,2.40
2022-11-16T11:48:02.957Z,2.13
2022-11-16T11:50:15.053Z,0.70
2022-11-16T11:52:22.533Z,2.77
2022-11-16T11:54:30.656Z,1.10
2022-11-16T11:56:34.316Z,0.50
2022-11-16T11:58:40.727Z,0.70
2022-11-16T12:00:53.121Z,0.90
2022-11-16T12:03:22.094Z,0.90
2022-11-16T12:05:36.588Z,0.40
2022-11-16T12:07:52.656Z,0.50
2022-11-16T12:10:08.017Z,0.70
2022-11-16T12:12:27.298Z,0.77
2022-11-16T12:14:43.102Z,0.60
2022-11-16T12:16:52.149Z,0.50
2022-11-16T12:19:11.397Z,0.70
2022-11-16T12:21:15.527Z,0.73
2022-11-16T12:23:33.047Z,0.87
2022-11-16T12:25:47.853Z,0.50
2022-11-16T12:28:04.586Z,0.60
2022-11-16T12:30:12.607Z,0.50
2022-11-16T12:32:29.992Z,0.90
2022-11-16T12:34:45.061Z,0.60
2022-11-16T12:36:55.209Z,0.90
2022-11-16T12:39:08.777Z,0.90
2022-11-16T12:41:47.664Z,1.17
2022-11-16T12:44:00.396Z,0.70
2022-11-16T12:46:12.675Z,0.43
2022-11-16T12:48:37.520Z,0.50
2022-11-16T12:50:51.387Z,0.43
2022-11-16T12:53:10.478Z,0.50
2022-11-16T12:55:26.723Z,0.70
2022-11-16T12:57:40.746Z,0.70
2022-11-16T13:00:06.666Z,0.60
2022-11-16T13:02:23.449Z,0.90
2022-11-16T13:04:31.421Z,0.70
2022-11-16T13:06:39.672Z,1.87
2022-11-16T13:08:49.399Z,1.47
2022-11-16T13:11:05.608Z,1.43
2022-11-16T13:13:35.443Z,0.83
2022-11-16T13:15:42.436Z,0.70
2022-11-16T13:17:51.157Z,0.90
2022-11-16T13:20:14.229Z,1.27
2022-11-16T13:22:22.978Z,1.47
2022-11-16T13:24:38.606Z,1.80
2022-11-16T13:26:49.073Z,8.90
2022-11-16T13:28:58.073Z,3.57
2022-11-16T13:31:09.595Z,7.87
2022-11-16T13:33:27.723Z,4.57
2022-11-16T13:35:30.923Z,3.03
2022-11-16T13:37:47.149Z,2.10
2022-11-16T13:40:20.694Z,1.43
2022-11-16T13:42:23.420Z,1.60
2022-11-16T13:44:30.822Z,1.43
2022-11-16T13:47:01.039Z,1.00
2022-11-16T13:49:04.215Z,0.93
2022-11-16T13:51:10.289Z,1.00
2022-11-16T13:55:47.262Z,1.60
2022-11-16T13:57:53.073Z,0.97
2022-11-16T14:00:11.000Z,1.27
2022-11-16T14:04:56.016Z,0.93
2022-11-16T14:07:00.934Z,1.03
2022-11-16T14:09:04.880Z,1.00
2022-11-16T14:11:29.675Z,0.73
2022-11-16T14:13:40.549Z,0.97
2022-11-16T14:15:43.282Z,0.90
2022-11-16T14:17:54.773Z,1.20
2022-11-16T14:19:58.880Z,0.93
2022-11-16T14:22:09.101Z,1.20
2022-11-16T14:24:23.106Z,0.90
2022-11-16T14:26:35.495Z,1.50
2022-11-16T14:29:15.391Z,1.07
2022-11-16T14:31:24.698Z,1.20
2022-11-16T14:33:33.072Z,0.80
2022-11-16T14:35:39.921Z,1.07
2022-11-16T14:37:43.348Z,0.90
2022-11-16T14:39:46.784Z,0.90
2022-11-16T14:41:49.713Z,0.93
2022-11-16T14:43:56.231Z,1.17
2022-11-16T14:46:03.228Z,1.10
2022-11-16T14:48:14.813Z,0.83
2022-11-16T14:50:23.153Z,1.00
2022-11-16T14:52:36.105Z,0.70
2022-11-16T14:54:43.205Z,0.93
2022-11-16T14:56:57.633Z,1.00
2022-11-16T14:59:02.458Z,1.20
2022-11-16T15:01:07.816Z,3.40
2022-11-16T15:03:12.951Z,6.23
2022-11-16T15:05:18.702Z,4.47
2022-11-16T15:07:24.023Z,6.03
2022-11-16T15:09:30.813Z,4.90
2022-11-16T15:11:54.934Z,2.70
2022-11-16T15:13:57.757Z,6.47
2022-11-16T15:16:11.309Z,4.82
2022-11-16T15:18:18.387Z,10.10
2022-11-16T15:20:22.759Z,7.60
2022-11-16T15:22:27.811Z,4.10
2022-11-16T15:24:33.816Z,5.27
2022-11-16T15:26:39.350Z,6.40
2022-11-16T15:28:47.184Z,6.90
2022-11-16T15:30:54.856Z,4.20
2022-11-16T15:32:57.795Z,5.23
2022-11-16T15:35:05.096Z,4.83
2022-11-16T15:37:11.822Z,5.20
2022-11-16T15:39:19.611Z,4.67
2022-11-16T15:41:25.381Z,2.33
2022-11-16T15:43:32.571Z,2.20
2022-11-16T15:45:37.425Z,1.20
2022-11-16T15:47:41.219Z,1.08
2022-11-16T15:49:44.589Z,1.20
2022-11-16T15:51:47.290Z,1.63
2022-11-16T15:53:51.674Z,1.15
2022-11-16T15:55:54.518Z,0.88
2022-11-16T15:58:05.209Z,1.00
2022-11-16T16:00:23.648Z,1.52
2022-11-16T16:02:29.572Z,0.90
2022-11-16T16:04:32.431Z,1.60
2022-11-16T16:06:47.282Z,1.77
2022-11-16T16:09:05.385Z,1.52
2022-11-16T16:11:12.382Z,1.50
2022-11-16T16:13:27.990Z,1.30
2022-11-16T16:15:33.870Z,1.88
2022-11-16T16:17:36.621Z,1.67
2022-11-16T16:19:42.960Z,1.92
2022-11-16T16:21:47.387Z,1.77
2022-11-16T16:23:52.103Z,2.42
2022-11-16T16:25:54.775Z,4.22
2022-11-16T16:27:58.111Z,3.25
2022-11-16T16:30:06.173Z,2.67
2022-11-16T16:32:14.421Z,2.83
2022-11-16T16:34:17.901Z,3.53
2022-11-16T16:36:20.597Z,5.85
2022-11-16T16:38:23.286Z,4.93
2022-11-16T16:40:26.385Z,3.72
2022-11-16T16:42:29.162Z,4.80
2022-11-16T16:44:32.029Z,4.85
2022-11-16T16:46:36.098Z,4.20
2022-11-16T16:48:44.357Z,4.25
2022-11-16T16:50:47.646Z,5.82
2022-11-16T16:52:50.427Z,9.45
2022-11-16T16:54:53.096Z,7.75
2022-11-16T16:56:56.140Z,6.20
2022-11-16T16:58:58.855Z,7.03
2022-11-16T17:01:05.476Z,5.82
2022-11-16T17:03:09.621Z,6.35
2022-11-16T17:05:12.481Z,6.95
2022-11-16T17:07:15.648Z,4.50
2022-11-16T17:09:18.569Z,4.20
2022-11-16T17:11:21.343Z,3.90
2022-11-16T17:13:24.104Z,3.30
2022-11-16T17:15:26.900Z,3.38
2022-11-16T17:17:29.701Z,3.50
2022-11-16T17:19:33.778Z,3.65
2022-11-16T17:21:36.583Z,2.90
2022-11-16T17:23:39.359Z,2.70
2022-11-16T17:25:42.112Z,7.40
2022-11-16T17:27:44.821Z,10.48
2022-11-16T17:29:47.574Z,6.38
2022-11-16T17:31:50.305Z,5.18
2022-11-16T17:33:53.510Z,6.13
2022-11-16T17:35:58.832Z,8.57
2022-11-16T17:38:01.465Z,10.70
2022-11-16T17:40:04.295Z,11.68
2022-11-16T17:42:07.181Z,6.60
2022-11-16T17:44:11.733Z,7.68
2022-11-16T17:46:17.582Z,10.32
2022-11-16T17:48:20.243Z,8.07
2022-11-16T17:50:22.897Z,6.22
2022-11-16T17:52:27.348Z,13.38
2022-11-16T17:54:30.075Z,11.10
2022-11-16T17:56:32.747Z,8.57
2022-11-16T17:58:35.664Z,9.60
2022-11-16T18:00:38.305Z,12.40
2022-11-16T18:02:40.973Z,11.45
2022-11-16T18:04:48.117Z,12.05
2022-11-16T18:06:53.546Z,12.85
2022-11-16T18:08:58.065Z,12.82
2022-11-16T18:11:05.093Z,15.63
2022-11-16T18:13:07.950Z,14.80
2022-11-16T18:15:27.850Z,20.85
2022-11-16T18:17:34.704Z,23.02
2022-11-16T18:19:37.474Z,22.73
2022-11-16T18:21:41.301Z,23.35
2022-11-16T18:23:44.147Z,23.15
2022-11-16T18:25:48.256Z,22.95
2022-11-16T18:27:53.072Z,24.92
2022-11-16T18:29:55.897Z,23.63
2022-11-16T18:31:58.697Z,22.92
2022-11-16T18:34:02.786Z,23.05
2022-11-16T18:36:06.624Z,20.88
2022-11-16T18:38:12.923Z,17.15
2022-11-16T18:40:15.931Z,15.80
2022-11-16T18:42:20.029Z,14.10
2022-11-16T18:44:22.892Z,16.20
2022-11-16T18:46:27.417Z,21.48
2022-11-16T18:48:30.128Z,29.60
2022-11-16T18:50:32.861Z,36.45
2022-11-16T18:52:35.621Z,9.25
2022-11-16T18:54:38.426Z,5.13
2022-11-16T18:56:41.189Z,4.90
2022-11-16T18:58:53.589Z,5.22
2022-11-16T19:01:03.275Z,6.15
2022-11-16T19:03:09.986Z,15.05
2022-11-16T19:05:14.156Z,5.70
2022-11-16T19:07:16.969Z,14.57
2022-11-16T19:09:19.768Z,15.55
2022-11-16T19:11:23.189Z,12.05
2022-11-16T19:13:25.881Z,22.90
2022-11-16T19:15:29.968Z,16.10
2022-11-16T19:17:32.781Z,9.65
2022-11-16T19:19:35.497Z,10.30
2022-11-16T19:21:38.925Z,7.20
2022-11-16T19:23:43.029Z,6.20
2022-11-16T19:25:45.879Z,5.85
2022-11-16T19:27:48.628Z,4.80
2022-11-16T19:29:51.394Z,5.30
2022-11-16T19:31:55.511Z,4.72
2022-11-16T19:33:59.605Z,4.18
2022-11-16T19:36:07.660Z,4.00
2022-11-16T19:38:10.430Z,4.68
2022-11-16T19:40:13.859Z,4.13
2022-11-16T19:42:16.687Z,4.10
2022-11-16T19:44:19.973Z,4.15
2022-11-16T19:46:24.274Z,4.85
2022-11-16T19:48:28.423Z,4.10
2022-11-16T19:50:31.231Z,4.07
2022-11-16T19:52:34.004Z,2.90
2022-11-16T19:54:36.771Z,3.47
2022-11-16T19:56:39.698Z,3.30
2022-11-16T19:58:43.032Z,3.20
2022-11-16T20:00:45.840Z,5.78
2022-11-16T20:02:48.628Z,6.10
2022-11-16T20:04:53.345Z,7.25
2022-11-16T20:06:56.160Z,7.43
2022-11-16T20:09:00.732Z,8.02
2022-11-16T20:11:11.190Z,19.83
2022-11-16T20:13:13.935Z,9.43
2022-11-16T20:15:16.765Z,11.20
2022-11-16T20:17:19.523Z,4.80
2022-11-16T20:19:22.130Z,5.75
2022-11-16T20:21:28.816Z,4.82
2022-11-16T20:23:31.669Z,5.47
2022-11-16T20:25:34.493Z,6.53
2022-11-16T20:27:37.347Z,5.78
2022-11-16T20:29:40.033Z,5.88
2022-11-16T20:31:45.239Z,5.80
2022-11-16T20:33:51.565Z,6.15
2022-11-16T20:36:01.271Z,5.82
2022-11-16T20:38:05.355Z,5.68
2022-11-16T20:40:09.058Z,6.22
2022-11-16T20:42:11.789Z,5.40
2022-11-16T20:44:18.210Z,5.90
2022-11-16T20:46:22.831Z,5.90
2022-11-16T20:48:25.517Z,5.55
2022-11-16T20:50:28.182Z,5.85
2022-11-16T20:52:30.931Z,6.28
2022-11-16T20:54:35.051Z,6.07
2022-11-16T20:56:37.836Z,6.40
2022-11-16T20:58:41.411Z,5.95
2022-11-16T21:00:44.537Z,6.75
2022-11-16T21:02:47.233Z,5.85
2022-11-16T21:04:49.960Z,5.40
2022-11-16T21:06:52.783Z,4.97
2022-11-16T21:08:56.215Z,5.25
2022-11-16T21:11:00.304Z,4.75
2022-11-16T21:13:20.611Z,4.93
2022-11-16T21:15:23.324Z,4.88
2022-11-16T21:17:26.051Z,5.80
2022-11-16T21:19:28.752Z,4.97
2022-11-16T21:21:32.082Z,5.43
2022-11-16T21:23:36.943Z,5.53
2022-11-16T21:25:39.881Z,6.18
2022-11-16T21:27:43.981Z,6.00
2022-11-16T21:29:46.691Z,6.03
2022-11-16T21:31:49.896Z,7.10
2022-11-16T21:33:53.516Z,7.00
2022-11-16T21:35:56.910Z,6.55
2022-11-16T21:37:59.657Z,7.10
2022-11-16T21:40:02.377Z,7.10
2022-11-16T21:42:05.658Z,7.15
2022-11-16T21:44:09.681Z,7.53
2022-11-16T21:46:13.726Z,7.47
2022-11-16T21:48:16.948Z,7.45
2022-11-16T21:50:35.007Z,6.40
2022-11-16T21:52:37.746Z,6.30
2022-11-16T21:54:48.198Z,6.05
2022-11-16T21:56:50.919Z,5.80
2022-11-16T21:58:54.724Z,5.72
2022-11-16T22:01:00.250Z,5.60
2022-11-16T22:03:03.119Z,5.55
2022-11-16T22:05:24.179Z,4.70
2022-11-16T22:07:36.814Z,4.40
2022-11-16T22:09:39.689Z,4.40
2022-11-16T22:11:42.396Z,4.13
2022-11-16T22:13:45.529Z,3.83
2022-11-16T22:15:49.488Z,3.83
2022-11-16T22:17:53.886Z,3.63
2022-11-16T22:19:56.665Z,3.20
2022-11-16T22:21:59.917Z,3.30
2022-11-16T22:24:02.878Z,3.03
2022-11-16T22:26:08.424Z,3.38
2022-11-16T22:28:20.791Z,3.08
2022-11-16T22:30:24.038Z,3.53
2022-11-16T22:32:26.835Z,3.30
2022-11-16T22:34:30.977Z,3.35
2022-11-16T22:36:33.784Z,3.08
2022-11-16T22:38:36.532Z,3.30
2022-11-16T22:40:39.320Z,3.40
2022-11-16T22:42:42.042Z,3.72
2022-11-16T22:44:44.966Z,3.63
2022-11-16T22:46:49.417Z,4.10
2022-11-16T22:48:52.174Z,3.97
2022-11-16T22:51:04.693Z,3.70
2022-11-16T22:53:07.441Z,4.13
2022-11-16T22:55:10.365Z,5.10
2022-11-16T22:57:13.085Z,6.07
2022-11-16T22:59:15.943Z,5.18
2022-11-16T23:01:19.218Z,3.63
2022-11-16T23:03:22.053Z,3.45
2022-11-16T23:05:24.916Z,3.97
2022-11-16T23:07:29.121Z,3.30
2022-11-16T23:09:32.638Z,3.38
2022-11-16T23:11:52.985Z,4.25
2022-11-16T23:14:13.409Z,4.43
2022-11-16T23:16:16.182Z,5.07
2022-11-16T23:18:19.777Z,5.18
2022-11-16T23:20:40.051Z,4.57
2022-11-16T23:23:01.808Z,5.40
2022-11-16T23:25:23.613Z,4.50
2022-11-16T23:27:32.286Z,4.97
2022-11-16T23:29:35.096Z,6.45
2022-11-16T23:31:38.326Z,6.00
2022-11-16T23:33:47.813Z,6.30
2022-11-16T23:35:50.571Z,6.25
2022-11-16T23:37:56.702Z,5.93
2022-11-16T23:39:59.538Z,7.65
2022-11-16T23:42:19.881Z,8.50
2022-11-16T23:44:22.756Z,7.70
2022-11-16T23:46:25.727Z,6.70
2022-11-16T23:48:28.460Z,7.43
2022-11-16T23:50:31.211Z,8.48
2022-11-16T23:52:33.935Z,10.40
2022-11-16T23:54:38.028Z,6.43
2022-11-16T23:56:40.706Z,9.13
2022-11-16T23:58:43.423Z,7.90
